John M Carras — SVBK5 — position and weather

sailwx.info

Track history (hours):
 
Tides and Currents Weather Stations Pressure Air Temp Water Temp Dewpoint Dewpoint Depression Visibility Wind Speed Wind Dir Waves Ship Positions

John M Carras

Last reported at 2015-Apr-21 18:33 UTC. Time now 2015-Apr-25 11:05 UTC.
Position N 49°52' W 003°14'.

Length 229 m; draft 12.7 m.

Type: Cargo ship. MMSI: 241150000.

Date/timePositionNaut miles runAvg speedWind from/ knotsBaromVisibWave heightAir tempDewpointWater temp
2015-Apr-21 18:33N 49°52' W 003°14'1512.3
2015-Apr-21 17:18N 49°59' W 002°53'1114.1
2015-Apr-21 16:33N 50°03' W 002°37'1615.7
2015-Apr-21 15:33N 50°07' W 002°14'2316.1
2015-Apr-21 14:09N 50°13' W 001°40'914.4
2015-Apr-21 13:33N 50°15' W 001°27'1312.8
2015-Apr-21 12:33N 50°18' W 001°07'1010.4
2015-Apr-21 11:33N 50°21' W 000°52'9 8.5
2015-Apr-21 10:31N 50°23' W 000°38'9 8.9
2015-Apr-21 09:33N 50°25' W 000°25'1010.3
2015-Apr-21 08:33N 50°28' W 000°10'1212.0
2015-Apr-21 07:32N 50°31' E 000°09'1313.5
2015-Apr-21 06:33N 50°34' E 000°29'1413.7
2015-Apr-21 05:34N 50°41' E 000°47'1313.2
2015-Apr-21 04:34N 50°49' E 001°04'1212.1
2015-Apr-21 03:33N 50°56' E 001°20'1010.0
2015-Apr-21 02:33N 51°04' E 001°31'5 4.9
2015-Apr-21 01:34N 51°06' E 001°37'7 6.9
2015-Apr-21 00:33N 51°03' E 001°47'8 7.7
2015-Apr-20 23:34N 51°03' E 001°59'1211.5
2015-Apr-20 22:33N 51°04' E 002°17'2 2.0
2015-Apr-20 21:33N 51°03' E 002°20'2 2.1
2015-Apr-20 20:33N 51°03' E 002°17'0 0.5
2015-Apr-20 19:33N 51°03' E 002°16'0 0.0
2015-Apr-20 18:33N 51°03' E 002°16'0 0.0
2015-Apr-20 17:33N 51°03' E 002°16'0 0.0
2015-Apr-20 16:33N 51°03' E 002°16'0 0.0
2015-Apr-20 15:34N 51°03' E 002°16'0 0.0
2015-Apr-20 14:33N 51°03' E 002°16'0 0.0
2015-Apr-20 13:33N 51°03' E 002°16'0 0.0
2015-Apr-20 12:33N 51°03' E 002°16'0 0.0
2015-Apr-20 11:33N 51°03' E 002°16'0 0.0
2015-Apr-20 10:33N 51°03' E 002°16'0 0.0
2015-Apr-20 09:34N 51°03' E 002°16'0 0.0
2015-Apr-20 08:30N 51°03' E 002°16'0 0.0
2015-Apr-20 07:33N 51°03' E 002°16'0 0.0
2015-Apr-20 06:30N 51°03' E 002°16'0 0.0
2015-Apr-20 05:33N 51°03' E 002°16'0 0.0
2015-Apr-20 04:30N 51°03' E 002°16'0 0.0
2015-Apr-20 03:31N 51°03' E 002°16'0 0.0
2015-Apr-20 02:31N 51°03' E 002°16'0 0.0
2015-Apr-20 01:34N 51°03' E 002°16'0 0.0
2015-Apr-20 00:31N 51°03' E 002°16'0 0.0
2015-Apr-19 23:31N 51°03' E 002°16'0 0.0
2015-Apr-19 22:31N 51°03' E 002°16'0 0.0
2015-Apr-19 21:34N 51°03' E 002°16'0 0.0
2015-Apr-19 20:33N 51°03' E 002°16'0 0.0
2015-Apr-19 19:21N 51°03' E 002°16'0 0.0
2015-Apr-19 18:30N 51°03' E 002°16'0 0.0
2015-Apr-19 17:26N 51°03' E 002°16'0 0.0
2015-Apr-19 16:33N 51°03' E 002°16'0 0.0
2015-Apr-19 15:30N 51°03' E 002°16'0 0.0
2015-Apr-19 14:34N 51°03' E 002°16'0 0.0
2015-Apr-19 13:34N 51°03' E 002°16'0 0.0
2015-Apr-19 12:28N 51°03' E 002°16'0 0.0
2015-Apr-19 11:31N 51°03' E 002°16'0 0.0
2015-Apr-19 10:33N 51°03' E 002°16'0 0.0
2015-Apr-19 09:33N 51°03' E 002°16'0 0.0
2015-Apr-19 08:31N 51°03' E 002°16'0 0.0
2015-Apr-19 07:30N 51°03' E 002°16'0 0.0
2015-Apr-19 06:33N 51°03' E 002°16'0 0.0
2015-Apr-19 05:30N 51°03' E 002°16'0 0.0
2015-Apr-19 04:27N 51°03' E 002°16'0 0.0
2015-Apr-19 03:33N 51°03' E 002°16'0 0.0
2015-Apr-19 02:30N 51°03' E 002°16'0 0.0
2015-Apr-19 01:34N 51°03' E 002°16'0 0.0
2015-Apr-19 00:33N 51°03' E 002°16'0 0.0
2015-Apr-18 23:27N 51°03' E 002°16'0 0.0
2015-Apr-18 22:30N 51°03' E 002°16'0 0.0
2015-Apr-18 21:33N 51°03' E 002°16'0 0.0
2015-Apr-18 20:33N 51°03' E 002°16'0 0.0
2015-Apr-18 19:33N 51°03' E 002°16'0 0.0
2015-Apr-18 18:34N 51°03' E 002°16'0 0.0
2015-Apr-18 17:19N 51°03' E 002°16'0 0.0
2015-Apr-18 16:27N 51°03' E 002°16'0 0.0
2015-Apr-18 15:33N 51°03' E 002°16'0 0.0
2015-Apr-18 14:30N 51°03' E 002°16'0 0.0
2015-Apr-18 13:28N 51°03' E 002°16'0 0.0
2015-Apr-18 12:24N 51°03' E 002°16'0 0.0
2015-Apr-18 11:28N 51°03' E 002°16'0 0.0
2015-Apr-18 10:33N 51°03' E 002°16'1 1.4
2015-Apr-18 09:33N 51°03' E 002°19'1 1.3
2015-Apr-18 08:34N 51°03' E 002°21'3 3.2
2015-Apr-18 07:33N 51°04' E 002°15'9 8.6
2015-Apr-18 06:31N 51°03' E 002°02'8 7.9
2015-Apr-18 05:34N 51°02' E 001°49'2 1.5
2015-Apr-18 04:32N 51°03' E 001°48'0 0.0
2015-Apr-18 03:32N 51°03' E 001°48'0 0.0
2015-Apr-18 02:32N 51°03' E 001°48'0 0.3
2015-Apr-18 01:32N 51°04' E 001°49'1 0.5
2015-Apr-18 00:33N 51°03' E 001°49'5 4.9
2015-Apr-17 23:33N 51°01' E 001°42'7 6.8
2015-Apr-17 22:33N 50°57' E 001°33'1311.5
2015-Apr-17 21:24N 50°45' E 001°25'4511.6
2015-Apr-17 17:30N 50°21' E 000°24'39 9.8
2015-Apr-17 13:29N 49°56' W 000°23'1011.0
2015-Apr-17 12:33N 49°46' W 000°27'1212.0
2015-Apr-17 11:33N 49°35' W 000°19'1212.0
2015-Apr-17 10:33N 49°29' W 000°03'9 9.3
2015-Apr-17 09:33N 49°26' E 000°10'9 9.2
2015-Apr-17 08:33N 49°27' E 000°25'6 5.7
2015-Apr-17 07:33N 49°27' E 000°33'4 4.4
2015-Apr-17 06:34N 49°28' E 000°40'5 4.7
2015-Apr-17 05:33N 49°29' E 000°47'5 3.5
2015-Apr-17 04:05N 49°29' E 000°55'6 0.2
2015-Apr-15 20:09N 49°26' E 001°03'0 0.0
2015-Apr-15 08:24N 49°26' E 001°03'0 0.0
2015-Apr-15 06:06N 49°26' E 001°03'0 0.0
2015-Apr-15 05:24N 49°26' E 001°03'0 0.0
2015-Apr-15 00:18N 49°26' E 001°03'6 0.3
2015-Apr-14 07:33N 49°21' E 000°59'8 4.0
2015-Apr-14 05:26N 49°26' E 000°49'7 7.7
2015-Apr-14 04:33N 49°31' E 000°41'6 6.4
2015-Apr-14 03:33N 49°28' E 000°32'1010.1
2015-Apr-14 02:33N 49°26' E 000°17'1212.0
2015-Apr-14 01:33N 49°28' W 000°01'5 5.3
2015-Apr-14 00:33N 49°30' W 000°09'0 0.3
2015-Apr-13 23:31N 49°29' W 000°09'0 0.0
2015-Apr-13 22:31N 49°29' W 000°09'0 0.0
2015-Apr-13 21:31N 49°29' W 000°09'0 0.1
2015-Apr-13 20:31N 49°29' W 000°09'0 0.1
2015-Apr-13 19:31N 49°29' W 000°09'0 0.0
2015-Apr-13 18:31N 49°29' W 000°09'0 0.0
2015-Apr-13 17:31N 49°29' W 000°09'0 0.1
2015-Apr-13 16:31N 49°29' W 000°09'0 0.1
2015-Apr-13 15:31N 49°29' W 000°08'0 0.0
2015-Apr-13 14:28N 49°29' W 000°09'0 0.2
2015-Apr-13 13:31N 49°29' W 000°09'0 0.0
2015-Apr-13 12:31N 49°29' W 000°09'0 0.0
2015-Apr-13 11:31N 49°29' W 000°09'0 0.0
2015-Apr-13 10:31N 49°29' W 000°09'0 0.0
2015-Apr-13 09:31N 49°29' W 000°09'0 0.0
2015-Apr-13 08:19N 49°29' W 000°09'0 0.0
2015-Apr-13 07:31N 49°29' W 000°09'0 0.1
2015-Apr-13 06:31N 49°29' W 000°09'0 0.1
2015-Apr-13 05:31N 49°29' W 000°08'0 0.0
2015-Apr-13 04:31N 49°29' W 000°08'0 0.1
2015-Apr-13 03:31N 49°29' W 000°08'0 0.0
2015-Apr-13 02:31N 49°29' W 000°08'0 0.0
2015-Apr-13 01:25N 49°29' W 000°08'0 0.0
2015-Apr-13 00:31N 49°29' W 000°09'0 0.1
2015-Apr-12 23:31N 49°29' W 000°09'0 0.1
2015-Apr-12 22:31N 49°29' W 000°09'0 0.1
2015-Apr-12 21:31N 49°29' W 000°09'0 0.0
2015-Apr-12 20:31N 49°29' W 000°09'0 0.0
2015-Apr-12 19:31N 49°29' W 000°09'0 0.1
2015-Apr-12 18:31N 49°29' W 000°09'0 0.0
2015-Apr-12 17:31N 49°29' W 000°09'0 0.0
2015-Apr-12 16:25N 49°29' W 000°08'0 0.0
2015-Apr-12 15:31N 49°29' W 000°08'0 0.0
2015-Apr-12 14:31N 49°29' W 000°08'0 0.0
2015-Apr-12 13:31N 49°29' W 000°08'0 0.0
2015-Apr-12 12:31N 49°29' W 000°08'0 0.0
2015-Apr-12 11:31N 49°29' W 000°08'0 0.1
2015-Apr-12 10:31N 49°29' W 000°09'0 0.0
2015-Apr-12 09:31N 49°29' W 000°09'0 0.1
2015-Apr-12 08:31N 49°29' W 000°09'0 0.1
2015-Apr-12 07:25N 49°29' W 000°09'0 0.0
2015-Apr-12 06:25N 49°29' W 000°09'0 0.0
2015-Apr-12 05:31N 49°29' W 000°09'0 0.1
2015-Apr-12 04:31N 49°29' W 000°09'0 0.1
2015-Apr-12 03:19N 49°29' W 000°08'0 0.0
2015-Apr-12 02:19N 49°29' W 000°08'0 0.0
2015-Apr-12 01:19N 49°29' W 000°08'0 0.0
2015-Apr-12 00:31N 49°29' W 000°08'0 0.1
2015-Apr-11 23:31N 49°29' W 000°08'0 0.1
2015-Apr-11 22:31N 49°29' W 000°08'0 0.1
2015-Apr-11 21:31N 49°29' W 000°09'0 0.0
2015-Apr-11 20:31N 49°29' W 000°09'0 0.0
2015-Apr-11 19:31N 49°29' W 000°09'  
Track history (hours):
 
Tides and Currents Weather Stations Pressure Air Temp Water Temp Dewpoint Dewpoint Depression Visibility Wind Speed Wind Dir Waves Ship Positions

John M Carras

Last reported at 2015-Apr-21 18:33 UTC. Time now 2015-Apr-25 11:05 UTC.
Position N 49°52' W 003°14'.

Length 229 m; draft 12.7 m.

Type: Cargo ship. MMSI: 241150000.

Date/timePositionNaut miles runAvg speedWind from/ knotsBaromVisibWave heightAir tempDewpointWater temp
2015-Apr-21 18:33N 49°52' W 003°14'1512.3
2015-Apr-21 17:18N 49°59' W 002°53'1114.1
2015-Apr-21 16:33N 50°03' W 002°37'1615.7
2015-Apr-21 15:33N 50°07' W 002°14'2316.1
2015-Apr-21 14:09N 50°13' W 001°40'914.4
2015-Apr-21 13:33N 50°15' W 001°27'1312.8
2015-Apr-21 12:33N 50°18' W 001°07'1010.4
2015-Apr-21 11:33N 50°21' W 000°52'9 8.5
2015-Apr-21 10:31N 50°23' W 000°38'9 8.9
2015-Apr-21 09:33N 50°25' W 000°25'1010.3
2015-Apr-21 08:33N 50°28' W 000°10'1212.0
2015-Apr-21 07:32N 50°31' E 000°09'1313.5
2015-Apr-21 06:33N 50°34' E 000°29'1413.7
2015-Apr-21 05:34N 50°41' E 000°47'1313.2
2015-Apr-21 04:34N 50°49' E 001°04'1212.1
2015-Apr-21 03:33N 50°56' E 001°20'1010.0
2015-Apr-21 02:33N 51°04' E 001°31'5 4.9
2015-Apr-21 01:34N 51°06' E 001°37'7 6.9
2015-Apr-21 00:33N 51°03' E 001°47'8 7.7
2015-Apr-20 23:34N 51°03' E 001°59'1211.5
2015-Apr-20 22:33N 51°04' E 002°17'2 2.0
2015-Apr-20 21:33N 51°03' E 002°20'2 2.1
2015-Apr-20 20:33N 51°03' E 002°17'0 0.5
2015-Apr-20 19:33N 51°03' E 002°16'0 0.0
2015-Apr-20 18:33N 51°03' E 002°16'0 0.0
2015-Apr-20 17:33N 51°03' E 002°16'0 0.0
2015-Apr-20 16:33N 51°03' E 002°16'0 0.0
2015-Apr-20 15:34N 51°03' E 002°16'0 0.0
2015-Apr-20 14:33N 51°03' E 002°16'0 0.0
2015-Apr-20 13:33N 51°03' E 002°16'0 0.0
2015-Apr-20 12:33N 51°03' E 002°16'0 0.0
2015-Apr-20 11:33N 51°03' E 002°16'0 0.0
2015-Apr-20 10:33N 51°03' E 002°16'0 0.0
2015-Apr-20 09:34N 51°03' E 002°16'0 0.0
2015-Apr-20 08:30N 51°03' E 002°16'0 0.0
2015-Apr-20 07:33N 51°03' E 002°16'0 0.0
2015-Apr-20 06:30N 51°03' E 002°16'0 0.0
2015-Apr-20 05:33N 51°03' E 002°16'0 0.0
2015-Apr-20 04:30N 51°03' E 002°16'0 0.0
2015-Apr-20 03:31N 51°03' E 002°16'0 0.0
2015-Apr-20 02:31N 51°03' E 002°16'0 0.0
2015-Apr-20 01:34N 51°03' E 002°16'0 0.0
2015-Apr-20 00:31N 51°03' E 002°16'0 0.0
2015-Apr-19 23:31N 51°03' E 002°16'0 0.0
2015-Apr-19 22:31N 51°03' E 002°16'0 0.0
2015-Apr-19 21:34N 51°03' E 002°16'0 0.0
2015-Apr-19 20:33N 51°03' E 002°16'0 0.0
2015-Apr-19 19:21N 51°03' E 002°16'0 0.0
2015-Apr-19 18:30N 51°03' E 002°16'0 0.0
2015-Apr-19 17:26N 51°03' E 002°16'0 0.0
2015-Apr-19 16:33N 51°03' E 002°16'0 0.0
2015-Apr-19 15:30N 51°03' E 002°16'0 0.0
2015-Apr-19 14:34N 51°03' E 002°16'0 0.0
2015-Apr-19 13:34N 51°03' E 002°16'0 0.0
2015-Apr-19 12:28N 51°03' E 002°16'0 0.0
2015-Apr-19 11:31N 51°03' E 002°16'0 0.0
2015-Apr-19 10:33N 51°03' E 002°16'0 0.0
2015-Apr-19 09:33N 51°03' E 002°16'0 0.0
2015-Apr-19 08:31N 51°03' E 002°16'0 0.0
2015-Apr-19 07:30N 51°03' E 002°16'0 0.0
2015-Apr-19 06:33N 51°03' E 002°16'0 0.0
2015-Apr-19 05:30N 51°03' E 002°16'0 0.0
2015-Apr-19 04:27N 51°03' E 002°16'0 0.0
2015-Apr-19 03:33N 51°03' E 002°16'0 0.0
2015-Apr-19 02:30N 51°03' E 002°16'0 0.0
2015-Apr-19 01:34N 51°03' E 002°16'0 0.0
2015-Apr-19 00:33N 51°03' E 002°16'0 0.0
2015-Apr-18 23:27N 51°03' E 002°16'0 0.0
2015-Apr-18 22:30N 51°03' E 002°16'0 0.0
2015-Apr-18 21:33N 51°03' E 002°16'0 0.0
2015-Apr-18 20:33N 51°03' E 002°16'0 0.0
2015-Apr-18 19:33N 51°03' E 002°16'0 0.0
2015-Apr-18 18:34N 51°03' E 002°16'0 0.0
2015-Apr-18 17:19N 51°03' E 002°16'0 0.0
2015-Apr-18 16:27N 51°03' E 002°16'0 0.0
2015-Apr-18 15:33N 51°03' E 002°16'0 0.0
2015-Apr-18 14:30N 51°03' E 002°16'0 0.0
2015-Apr-18 13:28N 51°03' E 002°16'0 0.0
2015-Apr-18 12:24N 51°03' E 002°16'0 0.0
2015-Apr-18 11:28N 51°03' E 002°16'0 0.0
2015-Apr-18 10:33N 51°03' E 002°16'1 1.4
2015-Apr-18 09:33N 51°03' E 002°19'1 1.3
2015-Apr-18 08:34N 51°03' E 002°21'3 3.2
2015-Apr-18 07:33N 51°04' E 002°15'9 8.6
2015-Apr-18 06:31N 51°03' E 002°02'8 7.9
2015-Apr-18 05:34N 51°02' E 001°49'2 1.5
2015-Apr-18 04:32N 51°03' E 001°48'0 0.0
2015-Apr-18 03:32N 51°03' E 001°48'0 0.0
2015-Apr-18 02:32N 51°03' E 001°48'0 0.3
2015-Apr-18 01:32N 51°04' E 001°49'1 0.5
2015-Apr-18 00:33N 51°03' E 001°49'5 4.9
2015-Apr-17 23:33N 51°01' E 001°42'7 6.8
2015-Apr-17 22:33N 50°57' E 001°33'1311.5
2015-Apr-17 21:24N 50°45' E 001°25'4511.6
2015-Apr-17 17:30N 50°21' E 000°24'39 9.8
2015-Apr-17 13:29N 49°56' W 000°23'1011.0
2015-Apr-17 12:33N 49°46' W 000°27'1212.0
2015-Apr-17 11:33N 49°35' W 000°19'1212.0
2015-Apr-17 10:33N 49°29' W 000°03'9 9.3
2015-Apr-17 09:33N 49°26' E 000°10'9 9.2
2015-Apr-17 08:33N 49°27' E 000°25'6 5.7
2015-Apr-17 07:33N 49°27' E 000°33'4 4.4
2015-Apr-17 06:34N 49°28' E 000°40'5 4.7
2015-Apr-17 05:33N 49°29' E 000°47'5 3.5
2015-Apr-17 04:05N 49°29' E 000°55'6 0.2
2015-Apr-15 20:09N 49°26' E 001°03'0 0.0
2015-Apr-15 08:24N 49°26' E 001°03'0 0.0
2015-Apr-15 06:06N 49°26' E 001°03'0 0.0
2015-Apr-15 05:24N 49°26' E 001°03'0 0.0
2015-Apr-15 00:18N 49°26' E 001°03'6 0.3
2015-Apr-14 07:33N 49°21' E 000°59'8 4.0
2015-Apr-14 05:26N 49°26' E 000°49'7 7.7
2015-Apr-14 04:33N 49°31' E 000°41'6 6.4
2015-Apr-14 03:33N 49°28' E 000°32'1010.1
2015-Apr-14 02:33N 49°26' E 000°17'1212.0
2015-Apr-14 01:33N 49°28' W 000°01'5 5.3
2015-Apr-14 00:33N 49°30' W 000°09'0 0.3
2015-Apr-13 23:31N 49°29' W 000°09'0 0.0
2015-Apr-13 22:31N 49°29' W 000°09'0 0.0
2015-Apr-13 21:31N 49°29' W 000°09'0 0.1
2015-Apr-13 20:31N 49°29' W 000°09'0 0.1
2015-Apr-13 19:31N 49°29' W 000°09'0 0.0
2015-Apr-13 18:31N 49°29' W 000°09'0 0.0
2015-Apr-13 17:31N 49°29' W 000°09'0 0.1
2015-Apr-13 16:31N 49°29' W 000°09'0 0.1
2015-Apr-13 15:31N 49°29' W 000°08'0 0.0
2015-Apr-13 14:28N 49°29' W 000°09'0 0.2
2015-Apr-13 13:31N 49°29' W 000°09'0 0.0
2015-Apr-13 12:31N 49°29' W 000°09'0 0.0
2015-Apr-13 11:31N 49°29' W 000°09'0 0.0
2015-Apr-13 10:31N 49°29' W 000°09'0 0.0
2015-Apr-13 09:31N 49°29' W 000°09'0 0.0
2015-Apr-13 08:19N 49°29' W 000°09'0 0.0
2015-Apr-13 07:31N 49°29' W 000°09'0 0.1
2015-Apr-13 06:31N 49°29' W 000°09'0 0.1
2015-Apr-13 05:31N 49°29' W 000°08'0 0.0
2015-Apr-13 04:31N 49°29' W 000°08'0 0.1
2015-Apr-13 03:31N 49°29' W 000°08'0 0.0
2015-Apr-13 02:31N 49°29' W 000°08'0 0.0
2015-Apr-13 01:25N 49°29' W 000°08'0 0.0
2015-Apr-13 00:31N 49°29' W 000°09'0 0.1
2015-Apr-12 23:31N 49°29' W 000°09'0 0.1
2015-Apr-12 22:31N 49°29' W 000°09'0 0.1
2015-Apr-12 21:31N 49°29' W 000°09'0 0.0
2015-Apr-12 20:31N 49°29' W 000°09'0 0.0
2015-Apr-12 19:31N 49°29' W 000°09'0 0.1
2015-Apr-12 18:31N 49°29' W 000°09'0 0.0
2015-Apr-12 17:31N 49°29' W 000°09'0 0.0
2015-Apr-12 16:25N 49°29' W 000°08'0 0.0
2015-Apr-12 15:31N 49°29' W 000°08'0 0.0
2015-Apr-12 14:31N 49°29' W 000°08'0 0.0
2015-Apr-12 13:31N 49°29' W 000°08'0 0.0
2015-Apr-12 12:31N 49°29' W 000°08'0 0.0
2015-Apr-12 11:31N 49°29' W 000°08'0 0.1
2015-Apr-12 10:31N 49°29' W 000°09'0 0.0
2015-Apr-12 09:31N 49°29' W 000°09'0 0.1
2015-Apr-12 08:31N 49°29' W 000°09'0 0.1
2015-Apr-12 07:25N 49°29' W 000°09'0 0.0
2015-Apr-12 06:25N 49°29' W 000°09'0 0.0
2015-Apr-12 05:31N 49°29' W 000°09'0 0.1
2015-Apr-12 04:31N 49°29' W 000°09'0 0.1
2015-Apr-12 03:19N 49°29' W 000°08'0 0.0
2015-Apr-12 02:19N 49°29' W 000°08'0 0.0
2015-Apr-12 01:19N 49°29' W 000°08'0 0.0
2015-Apr-12 00:31N 49°29' W 000°08'0 0.1
2015-Apr-11 23:31N 49°29' W 000°08'0 0.1
2015-Apr-11 22:31N 49°29' W 000°08'0 0.1
2015-Apr-11 21:31N 49°29' W 000°09'0 0.0
2015-Apr-11 20:31N 49°29' W 000°09'0 0.0
2015-Apr-11 19:31N 49°29' W 000°09'  

Dump ship's entire track history